sensor_id;sensor_type;location;lat;lon;timestamp;temperature;humidity
35363;DHT22;21463;47.480;8.214;2022-11-20T00:00:00;21.00;39.80
35363;DHT22;21463;47.480;8.214;2022-11-20T00:02:19;21.00;39.80
35363;DHT22;21463;47.480;8.214;2022-11-20T00:03:23;20.90;39.80
35363;DHT22;21463;47.480;8.214;2022-11-20T00:04:27;21.00;39.90
35363;DHT22;21463;47.480;8.214;2022-11-20T00:05:32;20.90;39.80
35363;DHT22;21463;47.480;8.214;2022-11-20T00:06:42;20.90;39.80
35363;DHT22;21463;47.480;8.214;2022-11-20T00:07:47;20.90;39.80
35363;DHT22;21463;47.480;8.214;2022-11-20T00:08:58;20.90;39.80
35363;DHT22;21463;47.480;8.214;2022-11-20T00:10:03;20.90;39.80
35363;DHT22;21463;47.480;8.214;2022-11-20T00:11:07;20.90;39.80
35363;DHT22;21463;47.480;8.214;2022-11-20T00:12:19;20.90;39.80
35363;DHT22;21463;47.480;8.214;2022-11-20T00:13:24;20.90;39.80
35363;DHT22;21463;47.480;8.214;2022-11-20T00:14:27;20.90;39.80
35363;DHT22;21463;47.480;8.214;2022-11-20T00:15:29;20.90;39.90
35363;DHT22;21463;47.480;8.214;2022-11-20T00:16:34;20.90;39.80
35363;DHT22;21463;47.480;8.214;2022-11-20T00:17:39;21.00;39.90
35363;DHT22;21463;47.480;8.214;2022-11-20T00:18:45;20.90;39.80
35363;DHT22;21463;47.480;8.214;2022-11-20T00:19:47;20.90;39.80
35363;DHT22;21463;47.480;8.214;2022-11-20T00:20:53;20.90;39.80
35363;DHT22;21463;47.480;8.214;2022-11-20T00:21:57;20.90;39.90
35363;DHT22;21463;47.480;8.214;2022-11-20T00:23:14;20.90;39.80
35363;DHT22;21463;47.480;8.214;2022-11-20T00:24:19;20.90;39.80
35363;DHT22;21463;47.480;8.214;2022-11-20T00:25:25;20.90;39.80
35363;DHT22;21463;47.480;8.214;2022-11-20T00:26:28;20.90;39.90
35363;DHT22;21463;47.480;8.214;2022-11-20T00:27:34;20.90;39.80
35363;DHT22;21463;47.480;8.214;2022-11-20T00:28:37;20.90;39.80
35363;DHT22;21463;47.480;8.214;2022-11-20T00:29:39;20.90;39.90
35363;DHT22;21463;47.480;8.214;2022-11-20T00:30:42;20.90;39.80
35363;DHT22;21463;47.480;8.214;2022-11-20T00:31:54;20.90;39.90
35363;DHT22;21463;47.480;8.214;2022-11-20T00:32:57;20.90;39.90
35363;DHT22;21463;47.480;8.214;2022-11-20T00:34:00;20.90;39.90
35363;DHT22;21463;47.480;8.214;2022-11-20T00:35:03;20.90;39.90
35363;DHT22;21463;47.480;8.214;2022-11-20T00:36:08;20.90;39.80
35363;DHT22;21463;47.480;8.214;2022-11-20T00:37:11;20.90;39.90
35363;DHT22;21463;47.480;8.214;2022-11-20T00:38:14;20.90;39.90
35363;DHT22;21463;47.480;8.214;2022-11-20T00:39:16;20.90;39.90
35363;DHT22;21463;47.480;8.214;2022-11-20T00:40:22;20.90;39.90
35363;DHT22;21463;47.480;8.214;2022-11-20T00:41:28;20.90;39.90
35363;DHT22;21463;47.480;8.214;2022-11-20T00:42:31;20.90;39.90
35363;DHT22;21463;47.480;8.214;2022-11-20T00:43:39;20.90;39.90
35363;DHT22;21463;47.480;8.214;2022-11-20T00:44:41;20.90;39.90
35363;DHT22;21463;47.480;8.214;2022-11-20T00:45:44;20.90;39.90
35363;DHT22;21463;47.480;8.214;2022-11-20T00:46:47;20.90;39.90
35363;DHT22;21463;47.480;8.214;2022-11-20T00:47:50;20.90;39.90
35363;DHT22;21463;47.480;8.214;2022-11-20T00:48:53;20.90;39.90
35363;DHT22;21463;47.480;8.214;2022-11-20T00:49:59;20.90;39.90
35363;DHT22;21463;47.480;8.214;2022-11-20T00:51:05;20.90;39.90
35363;DHT22;21463;47.480;8.214;2022-11-20T00:52:07;20.90;39.90
35363;DHT22;21463;47.480;8.214;2022-11-20T00:53:15;20.90;39.90
35363;DHT22;21463;47.480;8.214;2022-11-20T00:54:19;20.90;39.90
35363;DHT22;21463;47.480;8.214;2022-11-20T00:55:22;20.90;40.00
35363;DHT22;21463;47.480;8.214;2022-11-20T00:56:27;20.90;39.90
35363;DHT22;21463;47.480;8.214;2022-11-20T00:57:31;20.90;39.90
35363;DHT22;21463;47.480;8.214;2022-11-20T00:58:36;20.90;39.90
35363;DHT22;21463;47.480;8.214;2022-11-20T00:59:40;20.90;40.00
35363;DHT22;21463;47.480;8.214;2022-11-20T01:00:43;20.90;40.00
35363;DHT22;21463;47.480;8.214;2022-11-20T01:01:45;20.90;40.00
35363;DHT22;21463;47.480;8.214;2022-11-20T01:02:48;21.00;40.00
35363;DHT22;21463;47.480;8.214;2022-11-20T01:03:55;20.90;40.00
35363;DHT22;21463;47.480;8.214;2022-11-20T01:04:58;20.90;40.00
35363;DHT22;21463;47.480;8.214;2022-11-20T01:06:06;20.90;40.00
35363;DHT22;21463;47.480;8.214;2022-11-20T01:07:09;21.00;40.00
35363;DHT22;21463;47.480;8.214;2022-11-20T01:08:14;20.90;40.00
35363;DHT22;21463;47.480;8.214;2022-11-20T01:09:17;20.90;40.00
35363;DHT22;21463;47.480;8.214;2022-11-20T01:10:20;20.90;40.00
35363;DHT22;21463;47.480;8.214;2022-11-20T01:11:25;20.90;40.00
35363;DHT22;21463;47.480;8.214;2022-11-20T01:12:28;20.90;40.00
35363;DHT22;21463;47.480;8.214;2022-11-20T01:13:34;21.00;40.00
35363;DHT22;21463;47.480;8.214;2022-11-20T01:14:41;20.90;40.00
35363;DHT22;21463;47.480;8.214;2022-11-20T01:15:44;20.90;40.00
35363;DHT22;21463;47.480;8.214;2022-11-20T01:16:50;20.90;40.00
35363;DHT22;21463;47.480;8.214;2022-11-20T01:17:55;20.90;40.00
35363;DHT22;21463;47.480;8.214;2022-11-20T01:19:01;20.90;40.00
35363;DHT22;21463;47.480;8.214;2022-11-20T01:20:04;21.00;40.00
35363;DHT22;21463;47.480;8.214;2022-11-20T01:21:12;20.90;40.00
35363;DHT22;21463;47.480;8.214;2022-11-20T01:22:15;20.90;40.00
35363;DHT22;21463;47.480;8.214;2022-11-20T01:23:21;20.90;40.00
35363;DHT22;21463;47.480;8.214;2022-11-20T01:24:25;20.90;40.30
35363;DHT22;21463;47.480;8.214;2022-11-20T01:25:27;20.90;40.00
35363;DHT22;21463;47.480;8.214;2022-11-20T01:26:32;20.90;40.00
35363;DHT22;21463;47.480;8.214;2022-11-20T01:27:38;20.90;40.00
35363;DHT22;21463;47.480;8.214;2022-11-20T01:28:43;20.90;40.00
35363;DHT22;21463;47.480;8.214;2022-11-20T01:29:50;20.90;40.00
35363;DHT22;21463;47.480;8.214;2022-11-20T01:30:52;21.00;40.10
35363;DHT22;21463;47.480;8.214;2022-11-20T01:31:55;20.90;40.00
35363;DHT22;21463;47.480;8.214;2022-11-20T01:32:58;20.90;40.00
35363;DHT22;21463;47.480;8.214;2022-11-20T01:34:05;21.00;40.10
35363;DHT22;21463;47.480;8.214;2022-11-20T01:35:08;20.90;40.00
35363;DHT22;21463;47.480;8.214;2022-11-20T01:36:12;21.00;40.10
35363;DHT22;21463;47.480;8.214;2022-11-20T01:37:17;21.00;40.10
35363;DHT22;21463;47.480;8.214;2022-11-20T01:38:21;20.90;40.10
35363;DHT22;21463;47.480;8.214;2022-11-20T01:39:28;20.90;40.10
35363;DHT22;21463;47.480;8.214;2022-11-20T01:40:35;20.90;40.00
35363;DHT22;21463;47.480;8.214;2022-11-20T01:41:39;21.00;40.10
35363;DHT22;21463;47.480;8.214;2022-11-20T01:43:20;20.90;40.00
35363;DHT22;21463;47.480;8.214;2022-11-20T01:44:52;20.90;40.00
35363;DHT22;21463;47.480;8.214;2022-11-20T01:47:04;21.00;40.10
35363;DHT22;21463;47.480;8.214;2022-11-20T01:48:07;20.90;40.00
35363;DHT22;21463;47.480;8.214;2022-11-20T01:49:54;20.90;40.10
35363;DHT22;21463;47.480;8.214;2022-11-20T01:50:48;20.90;40.10
35363;DHT22;21463;47.480;8.214;2022-11-20T01:52:01;20.90;40.10
35363;DHT22;21463;47.480;8.214;2022-11-20T01:53:11;20.90;40.10
35363;DHT22;21463;47.480;8.214;2022-11-20T01:54:19;20.90;40.10
35363;DHT22;21463;47.480;8.214;2022-11-20T01:55:27;20.90;40.10
35363;DHT22;21463;47.480;8.214;2022-11-20T01:56:38;20.90;40.10
35363;DHT22;21463;47.480;8.214;2022-11-20T01:57:43;20.90;40.10
35363;DHT22;21463;47.480;8.214;2022-11-20T01:58:51;20.90;40.10
35363;DHT22;21463;47.480;8.214;2022-11-20T02:00:02;20.90;40.10
35363;DHT22;21463;47.480;8.214;2022-11-20T02:01:13;20.90;40.10
35363;DHT22;21463;47.480;8.214;2022-11-20T02:02:17;20.90;40.10
35363;DHT22;21463;47.480;8.214;2022-11-20T02:03:20;20.90;40.10
35363;DHT22;21463;47.480;8.214;2022-11-20T02:04:23;20.90;40.10
35363;DHT22;21463;47.480;8.214;2022-11-20T02:07:09;20.90;40.10
35363;DHT22;21463;47.480;8.214;2022-11-20T02:08:19;21.00;40.10
35363;DHT22;21463;47.480;8.214;2022-11-20T02:09:25;20.90;40.10
35363;DHT22;21463;47.480;8.214;2022-11-20T02:10:29;21.00;40.20
35363;DHT22;21463;47.480;8.214;2022-11-20T02:11:36;20.90;40.10
35363;DHT22;21463;47.480;8.214;2022-11-20T02:12:40;20.90;40.10
35363;DHT22;21463;47.480;8.214;2022-11-20T02:14:01;20.90;40.10
35363;DHT22;21463;47.480;8.214;2022-11-20T02:15:04;21.00;40.20
35363;DHT22;21463;47.480;8.214;2022-11-20T02:16:22;20.90;40.10
35363;DHT22;21463;47.480;8.214;2022-11-20T02:17:30;20.90;40.10
35363;DHT22;21463;47.480;8.214;2022-11-20T02:18:34;20.90;40.10
35363;DHT22;21463;47.480;8.214;2022-11-20T02:19:36;20.90;40.10
35363;DHT22;21463;47.480;8.214;2022-11-20T02:20:42;20.90;40.10
35363;DHT22;21463;47.480;8.214;2022-11-20T02:21:59;21.00;40.20
35363;DHT22;21463;47.480;8.214;2022-11-20T02:23:16;20.90;40.70
35363;DHT22;21463;47.480;8.214;2022-11-20T02:24:23;20.90;40.10
35363;DHT22;21463;47.480;8.214;2022-11-20T02:25:27;20.90;40.10
35363;DHT22;21463;47.480;8.214;2022-11-20T02:26:33;20.90;40.10
35363;DHT22;21463;47.480;8.214;2022-11-20T02:27:39;20.90;40.10
35363;DHT22;21463;47.480;8.214;2022-11-20T02:28:42;20.90;40.10
35363;DHT22;21463;47.480;8.214;2022-11-20T02:29:54;21.00;40.20
35363;DHT22;21463;47.480;8.214;2022-11-20T02:31:00;21.00;40.20
35363;DHT22;21463;47.480;8.214;2022-11-20T02:32:03;20.90;40.10
35363;DHT22;21463;47.480;8.214;2022-11-20T02:33:09;21.00;40.20
35363;DHT22;21463;47.480;8.214;2022-11-20T02:34:11;20.90;40.10
35363;DHT22;21463;47.480;8.214;2022-11-20T02:36:23;21.00;40.30
35363;DHT22;21463;47.480;8.214;2022-11-20T02:37:35;20.90;40.20
35363;DHT22;21463;47.480;8.214;2022-11-20T02:38:38;20.90;40.20
35363;DHT22;21463;47.480;8.214;2022-11-20T02:39:47;20.90;40.20
35363;DHT22;21463;47.480;8.214;2022-11-20T02:40:52;20.90;40.20
35363;DHT22;21463;47.480;8.214;2022-11-20T02:42:00;20.90;40.10
35363;DHT22;21463;47.480;8.214;2022-11-20T02:43:05;20.90;40.20
35363;DHT22;21463;47.480;8.214;2022-11-20T02:44:08;20.90;40.10
35363;DHT22;21463;47.480;8.214;2022-11-20T02:45:17;20.90;40.20
35363;DHT22;21463;47.480;8.214;2022-11-20T02:46:20;20.90;40.20
35363;DHT22;21463;47.480;8.214;2022-11-20T02:47:24;21.00;40.20
35363;DHT22;21463;47.480;8.214;2022-11-20T02:48:27;20.90;40.20
35363;DHT22;21463;47.480;8.214;2022-11-20T02:49:36;20.90;40.20
35363;DHT22;21463;47.480;8.214;2022-11-20T02:50:43;20.90;40.20
35363;DHT22;21463;47.480;8.214;2022-11-20T02:51:45;20.90;40.20
35363;DHT22;21463;47.480;8.214;2022-11-20T02:52:51;20.90;40.20
35363;DHT22;21463;47.480;8.214;2022-11-20T02:53:54;20.90;40.20
35363;DHT22;21463;47.480;8.214;2022-11-20T02:54:56;20.90;40.20
35363;DHT22;21463;47.480;8.214;2022-11-20T02:56:00;20.90;40.20
35363;DHT22;21463;47.480;8.214;2022-11-20T02:57:07;20.90;40.20
35363;DHT22;21463;47.480;8.214;2022-11-20T02:58:10;20.90;40.20
35363;DHT22;21463;47.480;8.214;2022-11-20T02:59:16;20.90;40.20
35363;DHT22;21463;47.480;8.214;2022-11-20T03:00:18;20.90;40.20
35363;DHT22;21463;47.480;8.214;2022-11-20T03:01:22;20.90;40.20
35363;DHT22;21463;47.480;8.214;2022-11-20T03:02:25;20.90;40.20
35363;DHT22;21463;47.480;8.214;2022-11-20T03:03:27;21.00;40.20
35363;DHT22;21463;47.480;8.214;2022-11-20T03:04:30;20.90;40.20
35363;DHT22;21463;47.480;8.214;2022-11-20T03:05:32;21.00;40.30
35363;DHT22;21463;47.480;8.214;2022-11-20T03:06:35;20.90;40.20
35363;DHT22;21463;47.480;8.214;2022-11-20T03:07:38;20.90;40.20
35363;DHT22;21463;47.480;8.214;2022-11-20T03:09:00;20.90;40.20
35363;DHT22;21463;47.480;8.214;2022-11-20T03:10:04;20.90;40.20
35363;DHT22;21463;47.480;8.214;2022-11-20T03:11:08;20.90;40.20
35363;DHT22;21463;47.480;8.214;2022-11-20T03:12:13;20.90;40.20
35363;DHT22;21463;47.480;8.214;2022-11-20T03:13:37;20.90;40.20
35363;DHT22;21463;47.480;8.214;2022-11-20T03:14:45;20.90;40.20
35363;DHT22;21463;47.480;8.214;2022-11-20T03:15:54;20.90;40.20
35363;DHT22;21463;47.480;8.214;2022-11-20T03:16:57;20.90;40.20
35363;DHT22;21463;47.480;8.214;2022-11-20T03:18:03;20.90;40.20
35363;DHT22;21463;47.480;8.214;2022-11-20T03:19:06;20.90;40.20
35363;DHT22;21463;47.480;8.214;2022-11-20T03:20:09;20.90;40.20
35363;DHT22;21463;47.480;8.214;2022-11-20T03:21:13;20.90;40.20
35363;DHT22;21463;47.480;8.214;2022-11-20T03:22:20;20.90;40.20
35363;DHT22;21463;47.480;8.214;2022-11-20T03:23:25;20.90;40.30
35363;DHT22;21463;47.480;8.214;2022-11-20T03:24:28;20.90;40.20
35363;DHT22;21463;47.480;8.214;2022-11-20T03:25:30;20.90;40.20
35363;DHT22;21463;47.480;8.214;2022-11-20T03:26:35;20.90;40.20
35363;DHT22;21463;47.480;8.214;2022-11-20T03:27:41;20.90;40.20
35363;DHT22;21463;47.480;8.214;2022-11-20T03:28:52;20.90;40.30
35363;DHT22;21463;47.480;8.214;2022-11-20T03:29:54;20.90;40.20
35363;DHT22;21463;47.480;8.214;2022-11-20T03:30:57;20.90;40.20
35363;DHT22;21463;47.480;8.214;2022-11-20T03:32:16;20.90;40.20
35363;DHT22;21463;47.480;8.214;2022-11-20T03:33:19;20.90;40.30
35363;DHT22;21463;47.480;8.214;2022-11-20T03:34:25;20.90;40.30
35363;DHT22;21463;47.480;8.214;2022-11-20T03:35:33;20.90;40.20
35363;DHT22;21463;47.480;8.214;2022-11-20T03:36:38;20.90;40.30
35363;DHT22;21463;47.480;8.214;2022-11-20T03:37:43;20.90;40.20
35363;DHT22;21463;47.480;8.214;2022-11-20T03:38:48;20.90;40.30
35363;DHT22;21463;47.480;8.214;2022-11-20T03:39:52;20.90;40.30
35363;DHT22;21463;47.480;8.214;2022-11-20T03:41:04;20.90;40.20
35363;DHT22;21463;47.480;8.214;2022-11-20T03:42:08;20.90;40.30
35363;DHT22;21463;47.480;8.214;2022-11-20T03:43:33;20.90;40.20
35363;DHT22;21463;47.480;8.214;2022-11-20T03:44:37;20.90;40.20
35363;DHT22;21463;47.480;8.214;2022-11-20T03:45:40;20.90;40.30
35363;DHT22;21463;47.480;8.214;2022-11-20T03:46:44;20.90;40.30
35363;DHT22;21463;47.480;8.214;2022-11-20T03:47:49;20.90;40.30
35363;DHT22;21463;47.480;8.214;2022-11-20T03:48:54;20.90;40.30
35363;DHT22;21463;47.480;8.214;2022-11-20T03:49:58;20.90;40.30
35363;DHT22;21463;47.480;8.214;2022-11-20T03:51:15;20.90;40.30
35363;DHT22;21463;47.480;8.214;2022-11-20T03:52:18;20.90;40.30
35363;DHT22;21463;47.480;8.214;2022-11-20T03:53:20;20.90;40.20
35363;DHT22;21463;47.480;8.214;2022-11-20T03:54:23;20.90;40.30
35363;DHT22;21463;47.480;8.214;2022-11-20T03:55:30;20.90;40.30
35363;DHT22;21463;47.480;8.214;2022-11-20T03:56:36;21.00;40.30
35363;DHT22;21463;47.480;8.214;2022-11-20T03:57:42;20.90;40.30
35363;DHT22;21463;47.480;8.214;2022-11-20T03:58:44;20.90;40.30
35363;DHT22;21463;47.480;8.214;2022-11-20T03:59:47;21.00;40.30
35363;DHT22;21463;47.480;8.214;2022-11-20T04:00:50;20.90;40.30
35363;DHT22;21463;47.480;8.214;2022-11-20T04:01:52;21.00;40.30
35363;DHT22;21463;47.480;8.214;2022-11-20T04:02:58;20.90;40.30
35363;DHT22;21463;47.480;8.214;2022-11-20T04:04:02;20.90;40.30
35363;DHT22;21463;47.480;8.214;2022-11-20T04:05:06;20.90;40.30
35363;DHT22;21463;47.480;8.214;2022-11-20T04:07:13;20.90;40.30
35363;DHT22;21463;47.480;8.214;2022-11-20T04:08:18;20.90;40.30
35363;DHT22;21463;47.480;8.214;2022-11-20T04:09:22;20.90;40.30
35363;DHT22;21463;47.480;8.214;2022-11-20T04:10:26;20.90;40.30
35363;DHT22;21463;47.480;8.214;2022-11-20T04:11:31;20.90;40.30
35363;DHT22;21463;47.480;8.214;2022-11-20T04:12:35;21.00;40.30
35363;DHT22;21463;47.480;8.214;2022-11-20T04:13:38;20.90;40.30
35363;DHT22;21463;47.480;8.214;2022-11-20T04:14:42;20.90;40.30
35363;DHT22;21463;47.480;8.214;2022-11-20T04:15:46;20.90;40.30
35363;DHT22;21463;47.480;8.214;2022-11-20T04:16:49;20.90;40.30
35363;DHT22;21463;47.480;8.214;2022-11-20T04:17:51;20.90;40.30
35363;DHT22;21463;47.480;8.214;2022-11-20T04:18:58;20.90;40.30
35363;DHT22;21463;47.480;8.214;2022-11-20T04:20:06;20.90;40.30
35363;DHT22;21463;47.480;8.214;2022-11-20T04:21:10;20.90;40.30
35363;DHT22;21463;47.480;8.214;2022-11-20T04:22:15;20.90;40.30
35363;DHT22;21463;47.480;8.214;2022-11-20T04:23:21;20.90;40.30
35363;DHT22;21463;47.480;8.214;2022-11-20T04:24:30;20.90;40.30
35363;DHT22;21463;47.480;8.214;2022-11-20T04:25:34;20.90;40.30
35363;DHT22;21463;47.480;8.214;2022-11-20T04:26:37;20.90;40.30
35363;DHT22;21463;47.480;8.214;2022-11-20T04:27:40;20.90;40.30
35363;DHT22;21463;47.480;8.214;2022-11-20T04:28:44;20.90;40.30
35363;DHT22;21463;47.480;8.214;2022-11-20T04:29:46;21.00;40.90
35363;DHT22;21463;47.480;8.214;2022-11-20T04:30:50;21.00;40.30
35363;DHT22;21463;47.480;8.214;2022-11-20T04:31:54;20.90;40.30
35363;DHT22;21463;47.480;8.214;2022-11-20T04:32:57;20.90;40.30
35363;DHT22;21463;47.480;8.214;2022-11-20T04:34:01;20.90;40.30
35363;DHT22;21463;47.480;8.214;2022-11-20T04:35:05;20.90;40.30
35363;DHT22;21463;47.480;8.214;2022-11-20T04:36:19;20.90;40.30
35363;DHT22;21463;47.480;8.214;2022-11-20T04:37:21;20.90;40.30
35363;DHT22;21463;47.480;8.214;2022-11-20T04:38:25;20.90;40.30
35363;DHT22;21463;47.480;8.214;2022-11-20T04:39:30;20.90;40.30
35363;DHT22;21463;47.480;8.214;2022-11-20T04:40:33;20.90;40.30
35363;DHT22;21463;47.480;8.214;2022-11-20T04:41:36;20.90;40.30
35363;DHT22;21463;47.480;8.214;2022-11-20T04:42:39;20.90;40.30
35363;DHT22;21463;47.480;8.214;2022-11-20T04:43:48;20.90;40.30
35363;DHT22;21463;47.480;8.214;2022-11-20T04:44:58;20.90;40.30
35363;DHT22;21463;47.480;8.214;2022-11-20T04:46:03;20.90;40.30
35363;DHT22;21463;47.480;8.214;2022-11-20T04:47:05;20.90;40.30
35363;DHT22;21463;47.480;8.214;2022-11-20T04:48:08;20.90;40.30
35363;DHT22;21463;47.480;8.214;2022-11-20T04:49:10;20.90;40.30
35363;DHT22;21463;47.480;8.214;2022-11-20T04:50:23;20.90;40.90
35363;DHT22;21463;47.480;8.214;2022-11-20T04:51:26;20.90;40.30
35363;DHT22;21463;47.480;8.214;2022-11-20T04:52:29;20.90;40.30
35363;DHT22;21463;47.480;8.214;2022-11-20T04:53:33;20.90;40.30
35363;DHT22;21463;47.480;8.214;2022-11-20T04:54:36;20.90;40.30
35363;DHT22;21463;47.480;8.214;2022-11-20T04:55:39;20.90;40.30
35363;DHT22;21463;47.480;8.214;2022-11-20T04:56:42;20.90;40.30
35363;DHT22;21463;47.480;8.214;2022-11-20T04:57:50;20.90;40.30
35363;DHT22;21463;47.480;8.214;2022-11-20T04:58:53;20.90;40.30
35363;DHT22;21463;47.480;8.214;2022-11-20T04:59:56;20.90;40.30
35363;DHT22;21463;47.480;8.214;2022-11-20T05:01:10;20.90;40.30
35363;DHT22;21463;47.480;8.214;2022-11-20T05:02:16;20.90;40.30
35363;DHT22;21463;47.480;8.214;2022-11-20T05:03:21;21.00;40.30
35363;DHT22;21463;47.480;8.214;2022-11-20T05:04:27;20.90;40.30
35363;DHT22;21463;47.480;8.214;2022-11-20T05:05:30;20.90;40.20
35363;DHT22;21463;47.480;8.214;2022-11-20T05:06:33;20.90;40.30
35363;DHT22;21463;47.480;8.214;2022-11-20T05:07:36;20.90;40.30
35363;DHT22;21463;47.480;8.214;2022-11-20T05:08:40;20.90;40.30
35363;DHT22;21463;47.480;8.214;2022-11-20T05:09:43;20.90;40.20
35363;DHT22;21463;47.480;8.214;2022-11-20T05:10:46;20.90;40.30
35363;DHT22;21463;47.480;8.214;2022-11-20T05:11:49;20.90;40.30
35363;DHT22;21463;47.480;8.214;2022-11-20T05:12:53;20.90;40.30
35363;DHT22;21463;47.480;8.214;2022-11-20T05:13:58;20.90;40.30
35363;DHT22;21463;47.480;8.214;2022-11-20T05:15:02;20.90;40.30
35363;DHT22;21463;47.480;8.214;2022-11-20T05:16:10;20.90;40.30
35363;DHT22;21463;47.480;8.214;2022-11-20T05:17:19;20.90;40.20
35363;DHT22;21463;47.480;8.214;2022-11-20T05:18:22;20.90;40.30
35363;DHT22;21463;47.480;8.214;2022-11-20T05:19:25;20.90;40.20
35363;DHT22;21463;47.480;8.214;2022-11-20T05:20:28;20.90;40.30
35363;DHT22;21463;47.480;8.214;2022-11-20T05:21:34;20.90;40.20
35363;DHT22;21463;47.480;8.214;2022-11-20T05:22:38;20.90;40.20
35363;DHT22;21463;47.480;8.214;2022-11-20T05:23:42;20.90;40.20
35363;DHT22;21463;47.480;8.214;2022-11-20T05:24:47;20.90;40.20
35363;DHT22;21463;47.480;8.214;2022-11-20T05:25:53;20.90;40.20
35363;DHT22;21463;47.480;8.214;2022-11-20T05:27:03;20.90;40.20
35363;DHT22;21463;47.480;8.214;2022-11-20T05:28:11;20.90;40.20
35363;DHT22;21463;47.480;8.214;2022-11-20T05:29:17;20.90;40.20
35363;DHT22;21463;47.480;8.214;2022-11-20T05:30:20;20.90;40.20
35363;DHT22;21463;47.480;8.214;2022-11-20T05:31:27;20.90;40.20
35363;DHT22;21463;47.480;8.214;2022-11-20T05:32:29;20.90;40.20
35363;DHT22;21463;47.480;8.214;2022-11-20T05:33:33;20.90;40.20
35363;DHT22;21463;47.480;8.214;2022-11-20T05:34:36;20.90;40.20
35363;DHT22;21463;47.480;8.214;2022-11-20T05:35:39;20.90;40.10
35363;DHT22;21463;47.480;8.214;2022-11-20T05:36:45;20.90;40.10
35363;DHT22;21463;47.480;8.214;2022-11-20T05:37:47;21.00;40.20
35363;DHT22;21463;47.480;8.214;2022-11-20T05:38:54;20.90;40.10
35363;DHT22;21463;47.480;8.214;2022-11-20T05:40:03;20.90;40.20
35363;DHT22;21463;47.480;8.214;2022-11-20T05:41:15;20.90;40.10
35363;DHT22;21463;47.480;8.214;2022-11-20T05:42:18;20.90;40.10
35363;DHT22;21463;47.480;8.214;2022-11-20T05:43:36;20.90;40.10
35363;DHT22;21463;47.480;8.214;2022-11-20T05:44:39;20.90;40.10
35363;DHT22;21463;47.480;8.214;2022-11-20T05:45:41;20.90;40.10
35363;DHT22;21463;47.480;8.214;2022-11-20T05:46:47;20.90;40.10
35363;DHT22;21463;47.480;8.214;2022-11-20T05:47:49;21.00;40.20
35363;DHT22;21463;47.480;8.214;2022-11-20T05:48:52;20.90;40.10
35363;DHT22;21463;47.480;8.214;2022-11-20T05:49:55;20.90;40.10
35363;DHT22;21463;47.480;8.214;2022-11-20T05:51:00;20.90;40.10
35363;DHT22;21463;47.480;8.214;2022-11-20T05:52:04;20.90;40.10
35363;DHT22;21463;47.480;8.214;2022-11-20T05:53:09;20.90;40.10
35363;DHT22;21463;47.480;8.214;2022-11-20T05:54:12;20.90;40.10
35363;DHT22;21463;47.480;8.214;2022-11-20T05:55:17;20.90;40.00
35363;DHT22;21463;47.480;8.214;2022-11-20T05:56:22;20.90;40.00
35363;DHT22;21463;47.480;8.214;2022-11-20T05:57:28;20.90;40.10
35363;DHT22;21463;47.480;8.214;2022-11-20T05:58:31;20.90;40.00
35363;DHT22;21463;47.480;8.214;2022-11-20T05:59:34;20.80;39.90
35363;DHT22;21463;47.480;8.214;2022-11-20T06:00:37;20.90;40.00
35363;DHT22;21463;47.480;8.214;2022-11-20T06:01:40;20.90;40.00
35363;DHT22;21463;47.480;8.214;2022-11-20T06:02:42;20.90;40.00
35363;DHT22;21463;47.480;8.214;2022-11-20T06:03:47;20.90;40.00
35363;DHT22;21463;47.480;8.214;2022-11-20T06:04:50;20.90;40.00
35363;DHT22;21463;47.480;8.214;2022-11-20T06:05:54;20.90;40.00
35363;DHT22;21463;47.480;8.214;2022-11-20T06:06:58;20.90;40.00
35363;DHT22;21463;47.480;8.214;2022-11-20T06:08:04;20.90;39.90
35363;DHT22;21463;47.480;8.214;2022-11-20T06:09:06;20.90;40.00
35363;DHT22;21463;47.480;8.214;2022-11-20T06:10:09;20.90;40.00
35363;DHT22;21463;47.480;8.214;2022-11-20T06:11:13;20.90;40.00
35363;DHT22;21463;47.480;8.214;2022-11-20T06:12:16;20.90;39.90
35363;DHT22;21463;47.480;8.214;2022-11-20T06:13:19;20.90;39.90
35363;DHT22;21463;47.480;8.214;2022-11-20T06:14:21;20.90;40.00
35363;DHT22;21463;47.480;8.214;2022-11-20T06:15:25;20.90;40.00
35363;DHT22;21463;47.480;8.214;2022-11-20T06:16:30;20.90;40.00
35363;DHT22;21463;47.480;8.214;2022-11-20T06:17:38;20.90;39.90
35363;DHT22;21463;47.480;8.214;2022-11-20T06:18:42;20.90;39.90
35363;DHT22;21463;47.480;8.214;2022-11-20T06:19:47;20.90;39.90
35363;DHT22;21463;47.480;8.214;2022-11-20T06:22:04;20.90;39.90
35363;DHT22;21463;47.480;8.214;2022-11-20T06:23:10;20.90;39.90
35363;DHT22;21463;47.480;8.214;2022-11-20T06:24:12;20.90;39.90
35363;DHT22;21463;47.480;8.214;2022-11-20T06:25:15;20.90;39.90
35363;DHT22;21463;47.480;8.214;2022-11-20T06:26:25;20.90;39.80
35363;DHT22;21463;47.480;8.214;2022-11-20T06:27:29;20.90;39.80
35363;DHT22;21463;47.480;8.214;2022-11-20T06:28:32;20.90;39.80
35363;DHT22;21463;47.480;8.214;2022-11-20T06:29:36;20.90;39.90
35363;DHT22;21463;47.480;8.214;2022-11-20T06:30:44;20.90;39.80
35363;DHT22;21463;47.480;8.214;2022-11-20T06:31:47;20.90;39.80
35363;DHT22;21463;47.480;8.214;2022-11-20T06:32:49;20.90;39.80
35363;DHT22;21463;47.480;8.214;2022-11-20T06:33:52;20.90;40.40
35363;DHT22;21463;47.480;8.214;2022-11-20T06:34:56;20.90;39.80
35363;DHT22;21463;47.480;8.214;2022-11-20T06:36:00;20.90;39.80
35363;DHT22;21463;47.480;8.214;2022-11-20T06:37:12;20.90;39.80
35363;DHT22;21463;47.480;8.214;2022-11-20T06:38:14;20.90;39.80
35363;DHT22;21463;47.480;8.214;2022-11-20T06:39:17;20.90;39.80
35363;DHT22;21463;47.480;8.214;2022-11-20T06:40:24;20.90;39.80
35363;DHT22;21463;47.480;8.214;2022-11-20T06:41:28;20.90;39.80
35363;DHT22;21463;47.480;8.214;2022-11-20T06:42:32;20.90;39.80
35363;DHT22;21463;47.480;8.214;2022-11-20T06:43:36;20.90;39.70
35363;DHT22;21463;47.480;8.214;2022-11-20T06:44:42;20.90;39.70
35363;DHT22;21463;47.480;8.214;2022-11-20T06:45:45;20.90;39.70
35363;DHT22;21463;47.480;8.214;2022-11-20T06:46:51;20.90;39.70
35363;DHT22;21463;47.480;8.214;2022-11-20T06:47:54;20.90;39.70
35363;DHT22;21463;47.480;8.214;2022-11-20T06:48:59;20.90;39.80
35363;DHT22;21463;47.480;8.214;2022-11-20T06:50:03;20.90;39.70
35363;DHT22;21463;47.480;8.214;2022-11-20T06:51:09;20.90;39.70
35363;DHT22;21463;47.480;8.214;2022-11-20T06:52:12;20.90;39.70
35363;DHT22;21463;47.480;8.214;2022-11-20T06:53:14;20.90;39.70
35363;DHT22;21463;47.480;8.214;2022-11-20T06:54:32;20.80;39.60
35363;DHT22;21463;47.480;8.214;2022-11-20T06:55:35;20.90;39.70
35363;DHT22;21463;47.480;8.214;2022-11-20T06:56:37;20.90;39.70
35363;DHT22;21463;47.480;8.214;2022-11-20T06:57:40;20.90;39.60
35363;DHT22;21463;47.480;8.214;2022-11-20T06:58:43;21.00;39.70
35363;DHT22;21463;47.480;8.214;2022-11-20T06:59:49;20.90;39.60